sensor_id;sensor_type;location;lat;lon;timestamp;pressure;altitude;pressure_sealevel;temperature;humidity
16120;BME280;12670;53.502;10.252;2023-05-08T00:01:53;102167.06;;;11.62;86.06
16120;BME280;12670;53.502;10.252;2023-05-08T00:04:56;102178.72;;;11.56;85.83
16120;BME280;12670;53.502;10.252;2023-05-08T00:08:00;102170.44;;;11.68;85.80
16120;BME280;12670;53.502;10.252;2023-05-08T00:11:03;102174.84;;;11.69;85.41
16120;BME280;12670;53.502;10.252;2023-05-08T00:14:06;102179.50;;;11.60;84.97
16120;BME280;12670;53.502;10.252;2023-05-08T00:17:08;102175.03;;;11.60;85.06
16120;BME280;12670;53.502;10.252;2023-05-08T00:20:11;102172.53;;;11.56;85.32
16120;BME280;12670;53.502;10.252;2023-05-08T00:23:16;102180.88;;;11.39;85.30
16120;BME280;12670;53.502;10.252;2023-05-08T00:26:19;102168.41;;;11.41;86.05
16120;BME280;12670;53.502;10.252;2023-05-08T00:29:22;102165.72;;;11.42;84.25
16120;BME280;12670;53.502;10.252;2023-05-08T00:32:24;102162.28;;;11.37;85.19
16120;BME280;12670;53.502;10.252;2023-05-08T00:35:27;102158.78;;;11.35;84.85
16120;BME280;12670;53.502;10.252;2023-05-08T00:38:32;102162.28;;;11.37;84.02
16120;BME280;12670;53.502;10.252;2023-05-08T00:41:35;102161.53;;;11.32;83.85
16120;BME280;12670;53.502;10.252;2023-05-08T00:44:38;102164.34;;;11.25;83.80
16120;BME280;12670;53.502;10.252;2023-05-08T00:47:41;102156.28;;;11.29;83.35
16120;BME280;12670;53.502;10.252;2023-05-08T00:50:44;102158.28;;;11.18;84.03
16120;BME280;12670;53.502;10.252;2023-05-08T00:53:48;102155.63;;;11.18;83.60
16120;BME280;12670;53.502;10.252;2023-05-08T00:56:51;102160.03;;;11.20;83.50
16120;BME280;12670;53.502;10.252;2023-05-08T00:59:54;102162.97;;;11.07;84.20
16120;BME280;12670;53.502;10.252;2023-05-08T01:02:59;102158.94;;;10.87;84.18
16120;BME280;12670;53.502;10.252;2023-05-08T01:06:02;102152.31;;;11.07;83.28
16120;BME280;12670;53.502;10.252;2023-05-08T01:09:08;102148.91;;;11.02;83.24
16120;BME280;12670;53.502;10.252;2023-05-08T01:12:16;102144.44;;;11.04;83.03
16120;BME280;12670;53.502;10.252;2023-05-08T01:15:26;102147.16;;;11.01;82.89
16120;BME280;12670;53.502;10.252;2023-05-08T01:18:35;102142.19;;;10.85;82.97
16120;BME280;12670;53.502;10.252;2023-05-08T01:21:43;102153.72;;;10.83;83.60
16120;BME280;12670;53.502;10.252;2023-05-08T01:25:27;102152.81;;;10.84;84.09
16120;BME280;12670;53.502;10.252;2023-05-08T01:28:59;102158.28;;;10.76;84.33
16120;BME280;12670;53.502;10.252;2023-05-08T01:32:11;102161.69;;;10.83;84.76
16120;BME280;12670;53.502;10.252;2023-05-08T01:35:20;102166.28;;;10.75;84.36
16120;BME280;12670;53.502;10.252;2023-05-08T01:38:29;102169.81;;;10.75;84.20
16120;BME280;12670;53.502;10.252;2023-05-08T01:41:33;102166.66;;;10.56;84.47
16120;BME280;12670;53.502;10.252;2023-05-08T01:44:42;102177.09;;;10.64;84.83
16120;BME280;12670;53.502;10.252;2023-05-08T01:47:50;102184.19;;;10.63;85.17
16120;BME280;12670;53.502;10.252;2023-05-08T01:51:00;102172.75;;;10.60;85.43
16120;BME280;12670;53.502;10.252;2023-05-08T01:54:07;102163.88;;;10.61;85.77
16120;BME280;12670;53.502;10.252;2023-05-08T01:57:11;102166.75;;;10.49;85.71
16120;BME280;12670;53.502;10.252;2023-05-08T02:00:18;102169.13;;;10.14;86.31
16120;BME280;12670;53.502;10.252;2023-05-08T02:03:24;102171.50;;;10.33;86.98
16120;BME280;12670;53.502;10.252;2023-05-08T02:06:27;102171.38;;;10.39;86.21
16120;BME280;12670;53.502;10.252;2023-05-08T02:09:33;102171.50;;;10.33;86.49
16120;BME280;12670;53.502;10.252;2023-05-08T02:12:36;102175.06;;;10.30;86.55
16120;BME280;12670;53.502;10.252;2023-05-08T02:15:41;102176.78;;;10.34;86.04
16120;BME280;12670;53.502;10.252;2023-05-08T02:18:48;102182.13;;;10.31;86.26
16120;BME280;12670;53.502;10.252;2023-05-08T02:21:54;102180.63;;;10.13;87.05
16120;BME280;12670;53.502;10.252;2023-05-08T02:24:58;102176.16;;;10.17;86.44
16120;BME280;12670;53.502;10.252;2023-05-08T02:28:02;102178.91;;;10.11;86.86
16120;BME280;12670;53.502;10.252;2023-05-08T02:31:08;102177.94;;;10.17;86.70
16120;BME280;12670;53.502;10.252;2023-05-08T02:34:12;102171.88;;;10.10;86.92
16120;BME280;12670;53.502;10.252;2023-05-08T02:37:17;102171.03;;;10.06;86.64
16120;BME280;12670;53.502;10.252;2023-05-08T02:40:22;102172.97;;;9.97;87.17
16120;BME280;12670;53.502;10.252;2023-05-08T02:43:26;102174.63;;;10.02;87.61
16120;BME280;12670;53.502;10.252;2023-05-08T02:46:38;102170.22;;;10.01;87.14
16120;BME280;12670;53.502;10.252;2023-05-08T02:49:50;102169.25;;;10.07;86.61
16120;BME280;12670;53.502;10.252;2023-05-08T02:52:59;102171.19;;;9.97;87.62
16120;BME280;12670;53.502;10.252;2023-05-08T02:56:09;102171.31;;;9.89;87.58
16120;BME280;12670;53.502;10.252;2023-05-08T02:59:16;102162.47;;;9.89;88.12
16120;BME280;12670;53.502;10.252;2023-05-08T03:02:27;102163.38;;;9.88;87.93
16120;BME280;12670;53.502;10.252;2023-05-08T03:05:34;102167.00;;;9.82;88.28
16120;BME280;12670;53.502;10.252;2023-05-08T03:08:39;102162.59;;;9.81;88.87
16120;BME280;12670;53.502;10.252;2023-05-08T03:11:47;102160.66;;;9.93;88.42
16120;BME280;12670;53.502;10.252;2023-05-08T03:14:55;102153.78;;;9.81;88.68
16120;BME280;12670;53.502;10.252;2023-05-08T03:18:01;102152.94;;;9.77;88.98
16120;BME280;12670;53.502;10.252;2023-05-08T03:21:07;102147.66;;;9.77;89.09
16120;BME280;12670;53.502;10.252;2023-05-08T03:24:14;102152.19;;;9.69;89.65
16120;BME280;12670;53.502;10.252;2023-05-08T03:27:19;102146.94;;;9.68;89.32
16120;BME280;12670;53.502;10.252;2023-05-08T03:30:24;102148.22;;;9.41;90.54
16120;BME280;12670;53.502;10.252;2023-05-08T03:33:28;102146.94;;;9.68;89.20
16120;BME280;12670;53.502;10.252;2023-05-08T03:36:33;102146.13;;;9.63;89.56
16120;BME280;12670;53.502;10.252;2023-05-08T03:39:36;102151.31;;;9.67;89.64
16120;BME280;12670;53.502;10.252;2023-05-08T03:42:40;102149.78;;;9.54;89.03
16120;BME280;12670;53.502;10.252;2023-05-08T03:45:43;102152.44;;;9.54;89.19
16120;BME280;12670;53.502;10.252;2023-05-08T03:48:47;102148.78;;;9.63;88.81
16120;BME280;12670;53.502;10.252;2023-05-08T03:51:52;102151.44;;;9.63;89.10
16120;BME280;12670;53.502;10.252;2023-05-08T03:54:56;102148.66;;;9.70;88.39
16120;BME280;12670;53.502;10.252;2023-05-08T03:58:04;102154.78;;;9.72;88.07
16120;BME280;12670;53.502;10.252;2023-05-08T04:01:10;102142.59;;;9.60;88.41
16120;BME280;12670;53.502;10.252;2023-05-08T04:04:17;102150.47;;;9.67;88.32
16120;BME280;12670;53.502;10.252;2023-05-08T04:07:26;102154.94;;;9.63;87.92
16120;BME280;12670;53.502;10.252;2023-05-08T04:10:31;102154.88;;;9.66;87.88
16120;BME280;12670;53.502;10.252;2023-05-08T04:13:40;102153.31;;;9.56;88.57
16120;BME280;12670;53.502;10.252;2023-05-08T04:16:47;102158.63;;;9.53;88.91
16120;BME280;12670;53.502;10.252;2023-05-08T04:19:57;102158.78;;;9.42;89.20
16120;BME280;12670;53.502;10.252;2023-05-08T04:23:02;102163.00;;;9.55;89.25
16120;BME280;12670;53.502;10.252;2023-05-08T04:26:06;102158.53;;;9.59;89.25
16120;BME280;12670;53.502;10.252;2023-05-08T04:29:10;102152.22;;;9.68;88.59
16120;BME280;12670;53.502;10.252;2023-05-08T04:32:13;102163.72;;;9.68;88.98
16120;BME280;12670;53.502;10.252;2023-05-08T04:35:16;102159.50;;;9.53;88.91
16120;BME280;12670;53.502;10.252;2023-05-08T04:38:20;102160.28;;;9.60;88.65
16120;BME280;12670;53.502;10.252;2023-05-08T04:41:23;102154.69;;;9.21;90.55
16120;BME280;12670;53.502;10.252;2023-05-08T04:44:26;102155.59;;;9.17;91.30
16120;BME280;12670;53.502;10.252;2023-05-08T04:47:29;102158.72;;;9.47;89.98
16120;BME280;12670;53.502;10.252;2023-05-08T04:50:32;102157.88;;;9.45;90.30
16120;BME280;12670;53.502;10.252;2023-05-08T04:53:36;102161.81;;;9.76;89.04
16120;BME280;12670;53.502;10.252;2023-05-08T04:56:38;102160.13;;;9.71;88.77
16120;BME280;12670;53.502;10.252;2023-05-08T04:59:41;102161.69;;;9.82;88.31
16120;BME280;12670;53.502;10.252;2023-05-08T05:02:44;102166.03;;;9.88;87.45
16120;BME280;12670;53.502;10.252;2023-05-08T05:05:46;102168.00;;;9.75;88.60
16120;BME280;12670;53.502;10.252;2023-05-08T05:08:50;102168.84;;;9.77;88.64
16120;BME280;12670;53.502;10.252;2023-05-08T05:11:53;102167.78;;;9.89;88.37
16120;BME280;12670;53.502;10.252;2023-05-08T05:14:58;102168.91;;;9.73;88.75
16120;BME280;12670;53.502;10.252;2023-05-08T05:18:01;102168.84;;;9.77;88.19
16120;BME280;12670;53.502;10.252;2023-05-08T05:21:04;102166.69;;;10.01;88.72
16120;BME280;12670;53.502;10.252;2023-05-08T05:24:08;102170.00;;;10.15;88.04
16120;BME280;12670;53.502;10.252;2023-05-08T05:27:10;102170.25;;;10.00;86.99
16120;BME280;12670;53.502;10.252;2023-05-08T05:30:13;102176.16;;;10.17;86.88
16120;BME280;12670;53.502;10.252;2023-05-08T05:33:16;102180.78;;;10.04;87.90
16120;BME280;12670;53.502;10.252;2023-05-08T05:36:18;102171.00;;;10.09;88.02
16120;BME280;12670;53.502;10.252;2023-05-08T05:39:22;102175.56;;;10.00;87.02
16120;BME280;12670;53.502;10.252;2023-05-08T05:42:25;102173.53;;;10.14;86.79
16120;BME280;12670;53.502;10.252;2023-05-08T05:45:28;102173.16;;;10.38;85.73
16120;BME280;12670;53.502;10.252;2023-05-08T05:48:33;102174.19;;;10.30;86.79
16120;BME280;12670;53.502;10.252;2023-05-08T05:51:36;102180.06;;;10.47;86.03
16120;BME280;12670;53.502;10.252;2023-05-08T05:54:40;102183.25;;;10.66;86.35
16120;BME280;12670;53.502;10.252;2023-05-08T05:57:43;102176.38;;;10.56;85.34
16120;BME280;12670;53.502;10.252;2023-05-08T06:00:45;102176.91;;;10.75;84.84
16120;BME280;12670;53.502;10.252;2023-05-08T06:03:49;102181.00;;;10.89;82.89
16120;BME280;12670;53.502;10.252;2023-05-08T06:06:51;102174.53;;;11.04;82.84
16120;BME280;12670;53.502;10.252;2023-05-08T06:09:55;102184.28;;;11.04;81.75
16120;BME280;12670;53.502;10.252;2023-05-08T06:12:58;102184.38;;;10.99;81.89
16120;BME280;12670;53.502;10.252;2023-05-08T06:16:01;102182.41;;;11.09;82.01
16120;BME280;12670;53.502;10.252;2023-05-08T06:19:04;102188.16;;;11.29;82.38
16120;BME280;12670;53.502;10.252;2023-05-08T06:22:07;102187.19;;;11.33;81.15
16120;BME280;12670;53.502;10.252;2023-05-08T06:25:10;102190.94;;;11.23;82.50
16120;BME280;12670;53.502;10.252;2023-05-08T06:28:13;102185.03;;;11.51;83.84
16120;BME280;12670;53.502;10.252;2023-05-08T06:31:16;102181.66;;;11.44;82.13
16120;BME280;12670;53.502;10.252;2023-05-08T06:34:19;102169.56;;;11.68;81.39
16120;BME280;12670;53.502;10.252;2023-05-08T06:37:22;102171.63;;;11.94;79.92
16120;BME280;12670;53.502;10.252;2023-05-08T06:40:26;102175.16;;;11.94;81.64
16120;BME280;12670;53.502;10.252;2023-05-08T06:43:28;102180.00;;;12.13;79.09
16120;BME280;12670;53.502;10.252;2023-05-08T06:46:31;102190.50;;;12.19;79.42
16120;BME280;12670;53.502;10.252;2023-05-08T06:49:34;102182.19;;;12.33;77.89
16120;BME280;12670;53.502;10.252;2023-05-08T06:52:37;102179.53;;;12.31;78.92
16120;BME280;12670;53.502;10.252;2023-05-08T06:55:42;102176.59;;;12.43;79.07
16120;BME280;12670;53.502;10.252;2023-05-08T06:58:45;102179.56;;;12.64;78.69
16120;BME280;12670;53.502;10.252;2023-05-08T07:02:08;102178.47;;;12.71;79.07
16120;BME280;12670;53.502;10.252;2023-05-08T07:05:11;102175.97;;;12.97;76.84
16120;BME280;12670;53.502;10.252;2023-05-08T07:08:14;102169.75;;;12.97;76.33
16120;BME280;12670;53.502;10.252;2023-05-08T07:11:18;102166.16;;;12.98;74.49
16120;BME280;12670;53.502;10.252;2023-05-08T07:14:20;102163.81;;;12.87;76.18
16120;BME280;12670;53.502;10.252;2023-05-08T07:17:23;102167.84;;;13.02;74.08
16120;BME280;12670;53.502;10.252;2023-05-08T07:20:26;102169.81;;;13.25;77.03
16120;BME280;12670;53.502;10.252;2023-05-08T07:23:28;102162.69;;;13.27;75.17
16120;BME280;12670;53.502;10.252;2023-05-08T07:26:33;102178.72;;;13.53;76.89
16120;BME280;12670;53.502;10.252;2023-05-08T07:29:36;102172.09;;;13.67;71.61
16120;BME280;12670;53.502;10.252;2023-05-08T07:32:38;102175.09;;;13.56;72.39
16120;BME280;12670;53.502;10.252;2023-05-08T07:35:41;102178.13;;;13.72;74.25
16120;BME280;12670;53.502;10.252;2023-05-08T07:38:43;102171.47;;;14.13;72.87
16120;BME280;12670;53.502;10.252;2023-05-08T07:41:47;102171.19;;;14.21;72.19
16120;BME280;12670;53.502;10.252;2023-05-08T07:44:50;102167.88;;;14.14;69.98
16120;BME280;12670;53.502;10.252;2023-05-08T07:47:56;102167.91;;;14.12;72.58
16120;BME280;12670;53.502;10.252;2023-05-08T07:50:59;102164.50;;;14.34;73.48
16120;BME280;12670;53.502;10.252;2023-05-08T07:54:02;102164.97;;;14.47;72.85
16120;BME280;12670;53.502;10.252;2023-05-08T07:57:06;102162.72;;;14.61;70.66
16120;BME280;12670;53.502;10.252;2023-05-08T08:00:11;102167.28;;;14.57;69.39
16120;BME280;12670;53.502;10.252;2023-05-08T08:03:14;102167.22;;;14.59;68.29
16120;BME280;12670;53.502;10.252;2023-05-08T08:06:17;102160.63;;;14.69;71.08
16120;BME280;12670;53.502;10.252;2023-05-08T08:09:20;102162.19;;;14.75;69.38
16120;BME280;12670;53.502;10.252;2023-05-08T08:12:24;102159.38;;;15.03;71.92
16120;BME280;12670;53.502;10.252;2023-05-08T08:15:27;102155.59;;;15.08;67.10
16120;BME280;12670;53.502;10.252;2023-05-08T08:18:32;102161.69;;;15.12;66.30
16120;BME280;12670;53.502;10.252;2023-05-08T08:21:40;102160.16;;;15.28;69.16
16120;BME280;12670;53.502;10.252;2023-05-08T08:24:43;102157.50;;;15.28;67.66
16120;BME280;12670;53.502;10.252;2023-05-08T08:27:47;102158.63;;;15.44;66.12
16120;BME280;12670;53.502;10.252;2023-05-08T08:30:50;102156.13;;;15.63;66.22
16120;BME280;12670;53.502;10.252;2023-05-08T08:33:52;102153.53;;;15.84;63.96
16120;BME280;12670;53.502;10.252;2023-05-08T08:36:55;102151.66;;;16.06;64.59
16120;BME280;12670;53.502;10.252;2023-05-08T08:39:58;102146.28;;;16.08;63.73
16120;BME280;12670;53.502;10.252;2023-05-08T08:43:03;102157.84;;;16.29;64.31
16120;BME280;12670;53.502;10.252;2023-05-08T08:46:09;102148.97;;;16.48;63.75
16120;BME280;12670;53.502;10.252;2023-05-08T08:49:16;102148.06;;;16.68;64.82
16120;BME280;12670;53.502;10.252;2023-05-08T08:52:25;102150.09;;;16.43;63.11
16120;BME280;12670;53.502;10.252;2023-05-08T08:55:33;102147.94;;;16.51;62.56
16120;BME280;12670;53.502;10.252;2023-05-08T08:58:45;102145.75;;;16.61;60.70
16120;BME280;12670;53.502;10.252;2023-05-08T09:01:54;102142.44;;;16.95;61.31
16120;BME280;12670;53.502;10.252;2023-05-08T09:04:58;102137.13;;;16.93;60.79
16120;BME280;12670;53.502;10.252;2023-05-08T09:08:01;102139.19;;;17.07;62.22
16120;BME280;12670;53.502;10.252;2023-05-08T09:11:04;102137.56;;;17.59;61.14
16120;BME280;12670;53.502;10.252;2023-05-08T09:14:08;102141.13;;;17.96;57.32
16120;BME280;12670;53.502;10.252;2023-05-08T09:17:11;102138.75;;;17.90;56.38
16120;BME280;12670;53.502;10.252;2023-05-08T09:20:14;102134.31;;;17.89;60.38
16120;BME280;12670;53.502;10.252;2023-05-08T09:23:17;102123.88;;;18.35;60.10
16120;BME280;12670;53.502;10.252;2023-05-08T09:26:27;102124.88;;;18.84;56.98
16120;BME280;12670;53.502;10.252;2023-05-08T09:29:33;102123.69;;;19.06;56.23
16120;BME280;12670;53.502;10.252;2023-05-08T09:32:37;102125.25;;;19.41;55.38
16120;BME280;12670;53.502;10.252;2023-05-08T09:35:40;102115.84;;;19.17;53.39
16120;BME280;12670;53.502;10.252;2023-05-08T09:38:43;102130.63;;;19.73;55.38
16120;BME280;12670;53.502;10.252;2023-05-08T09:41:56;102126.41;;;19.99;51.82
16120;BME280;12670;53.502;10.252;2023-05-08T09:45:00;102129.53;;;20.07;53.30
16120;BME280;12670;53.502;10.252;2023-05-08T09:48:03;102128.47;;;20.10;52.98
16120;BME280;12670;53.502;10.252;2023-05-08T09:51:06;102123.00;;;20.11;52.61
16120;BME280;12670;53.502;10.252;2023-05-08T09:54:16;102118.97;;;20.63;50.75
16120;BME280;12670;53.502;10.252;2023-05-08T09:57:19;102112.72;;;20.76;51.38
16120;BME280;12670;53.502;10.252;2023-05-08T10:00:23;102118.72;;;21.37;49.50
16120;BME280;12670;53.502;10.252;2023-05-08T10:03:45;102109.06;;;22.14;48.38
16120;BME280;12670;53.502;10.252;2023-05-08T10:06:56;102117.78;;;22.57;47.68
16120;BME280;12670;53.502;10.252;2023-05-08T10:10:00;102114.06;;;22.20;44.19
16120;BME280;12670;53.502;10.252;2023-05-08T10:13:03;102106.25;;;22.16;42.45
16120;BME280;12670;53.502;10.252;2023-05-08T10:16:11;102115.03;;;21.52;43.15
16120;BME280;12670;53.502;10.252;2023-05-08T10:19:17;102111.84;;;20.47;46.66
16120;BME280;12670;53.502;10.252;2023-05-08T10:22:20;102106.78;;;20.41;49.37
16120;BME280;12670;53.502;10.252;2023-05-08T10:25:24;102102.66;;;20.93;46.87
16120;BME280;12670;53.502;10.252;2023-05-08T10:28:31;102107.31;;;21.05;49.67
16120;BME280;12670;53.502;10.252;2023-05-08T10:31:39;102107.81;;;20.24;48.81
16120;BME280;12670;53.502;10.252;2023-05-08T10:34:46;102108.38;;;19.85;49.57
16120;BME280;12670;53.502;10.252;2023-05-08T10:37:51;102113.63;;;19.41;49.21
16120;BME280;12670;53.502;10.252;2023-05-08T10:40:59;102099.91;;;19.14;47.51
16120;BME280;12670;53.502;10.252;2023-05-08T10:44:02;102102.50;;;19.15;47.36
16120;BME280;12670;53.502;10.252;2023-05-08T10:47:11;102090.34;;;18.77;48.37
16120;BME280;12670;53.502;10.252;2023-05-08T10:50:39;102087.56;;;18.78;50.51
16120;BME280;12670;53.502;10.252;2023-05-08T10:53:48;102083.63;;;18.68;50.21
16120;BME280;12670;53.502;10.252;2023-05-08T10:57:06;102081.94;;;19.30;50.99
16120;BME280;12670;53.502;10.252;2023-05-08T11:00:10;102076.72;;;20.19;49.83
16120;BME280;12670;53.502;10.252;2023-05-08T11:03:15;102068.69;;;20.76;45.90
16120;BME280;12670;53.502;10.252;2023-05-08T11:06:43;102071.41;;;21.32;44.24
16120;BME280;12670;53.502;10.252;2023-05-08T11:09:47;102076.00;;;21.71;40.32
16120;BME280;12670;53.502;10.252;2023-05-08T11:12:50;102064.94;;;22.90;43.97
16120;BME280;12670;53.502;10.252;2023-05-08T11:15:53;102070.00;;;23.79;38.29
16120;BME280;12670;53.502;10.252;2023-05-08T11:19:16;102065.41;;;23.68;38.35
16120;BME280;12670;53.502;10.252;2023-05-08T11:22:24;102060.81;;;22.97;37.53
16120;BME280;12670;53.502;10.252;2023-05-08T11:25:40;102061.25;;;23.52;39.47
16120;BME280;12670;53.502;10.252;2023-05-08T11:28:55;102067.06;;;23.58;35.95
16120;BME280;12670;53.502;10.252;2023-05-08T11:31:58;102054.78;;;23.89;37.31
16120;BME280;12670;53.502;10.252;2023-05-08T11:35:02;102060.34;;;23.99;37.42
16120;BME280;12670;53.502;10.252;2023-05-08T11:38:13;102063.16;;;24.44;37.02
16120;BME280;12670;53.502;10.252;2023-05-08T11:41:20;102055.41;;;24.62;35.60
16120;BME280;12670;53.502;10.252;2023-05-08T11:44:23;102055.75;;;25.02;36.71
16120;BME280;12670;53.502;10.252;2023-05-08T11:47:31;102048.34;;;25.15;33.91
16120;BME280;12670;53.502;10.252;2023-05-08T11:50:39;102048.16;;;25.39;33.95
16120;BME280;12670;53.502;10.252;2023-05-08T11:53:42;102035.03;;;24.90;32.91
16120;BME280;12670;53.502;10.252;2023-05-08T11:56:45;102040.75;;;24.64;34.84
16120;BME280;12670;53.502;10.252;2023-05-08T11:59:49;102044.28;;;25.53;34.26
16120;BME280;12670;53.502;10.252;2023-05-08T12:02:52;102038.09;;;25.19;32.35
16120;BME280;12670;53.502;10.252;2023-05-08T12:05:58;102041.72;;;24.75;34.15
16120;BME280;12670;53.502;10.252;2023-05-08T12:09:01;102032.84;;;24.61;32.86
16120;BME280;12670;53.502;10.252;2023-05-08T12:12:05;102040.97;;;24.84;36.17
16120;BME280;12670;53.502;10.252;2023-05-08T12:15:09;102033.81;;;23.91;31.90
16120;BME280;12670;53.502;10.252;2023-05-08T12:18:12;102045.50;;;23.33;32.92
16120;BME280;12670;53.502;10.252;2023-05-08T12:21:16;102039.88;;;23.12;33.52
16120;BME280;12670;53.502;10.252;2023-05-08T12:24:19;102041.47;;;23.14;32.23
16120;BME280;12670;53.502;10.252;2023-05-08T12:27:24;102031.53;;;23.63;34.82
16120;BME280;12670;53.502;10.252;2023-05-08T12:30:26;102026.19;;;24.43;30.93
16120;BME280;12670;53.502;10.252;2023-05-08T12:33:29;102022.75;;;23.94;30.20
16120;BME280;12670;53.502;10.252;2023-05-08T12:36:34;102022.09;;;24.60;31.86
16120;BME280;12670;53.502;10.252;2023-05-08T12:39:43;102016.22;;;25.20;30.49
16120;BME280;12670;53.502;10.252;2023-05-08T12:42:47;102028.16;;;24.75;31.30
16120;BME280;12670;53.502;10.252;2023-05-08T12:45:51;102017.53;;;24.38;30.58
16120;BME280;12670;53.502;10.252;2023-05-08T12:48:59;102026.56;;;25.26;29.97
16120;BME280;12670;53.502;10.252;2023-05-08T12:52:05;102024.44;;;24.87;29.09
16120;BME280;12670;53.502;10.252;2023-05-08T12:55:21;102015.97;;;25.56;30.32
16120;BME280;12670;53.502;10.252;2023-05-08T12:58:25;102015.03;;;25.66;29.51
16120;BME280;12670;53.502;10.252;2023-05-08T13:01:28;102019.94;;;25.51;31.45
16120;BME280;12670;53.502;10.252;2023-05-08T13:04:35;102022.06;;;26.01;30.54
16120;BME280;12670;53.502;10.252;2023-05-08T13:07:40;102017.88;;;25.76;28.40
16120;BME280;12670;53.502;10.252;2023-05-08T13:10:44;102015.03;;;25.45;31.66
16120;BME280;12670;53.502;10.252;2023-05-08T13:13:47;102007.78;;;25.35;34.01
16120;BME280;12670;53.502;10.252;2023-05-08T13:16:49;102005.03;;;25.99;29.99
16120;BME280;12670;53.502;10.252;2023-05-08T13:19:53;102009.22;;;25.71;29.84
16120;BME280;12670;53.502;10.252;2023-05-08T13:22:57;101997.78;;;26.09;29.77
16120;BME280;12670;53.502;10.252;2023-05-08T13:25:59;102003.63;;;26.35;30.08
16120;BME280;12670;53.502;10.252;2023-05-08T13:29:02;101993.41;;;25.44;30.54
16120;BME280;12670;53.502;10.252;2023-05-08T13:32:05;101998.47;;;25.81;32.23
16120;BME280;12670;53.502;10.252;2023-05-08T13:35:08;101999.50;;;24.93;31.26
16120;BME280;12670;53.502;10.252;2023-05-08T13:38:12;101986.78;;;24.93;29.99
16120;BME280;12670;53.502;10.252;2023-05-08T13:41:14;101983.13;;;24.61;29.53
16120;BME280;12670;53.502;10.252;2023-05-08T13:44:17;101979.53;;;24.71;30.90
16120;BME280;12670;53.502;10.252;2023-05-08T13:47:20;101980.19;;;24.64;32.38
16120;BME280;12670;53.502;10.252;2023-05-08T13:50:22;101977.19;;;24.78;29.31
16120;BME280;12670;53.502;10.252;2023-05-08T13:53:26;101974.38;;;25.23;30.32
16120;BME280;12670;53.502;10.252;2023-05-08T13:56:29;101976.78;;;25.05;30.28
16120;BME280;12670;53.502;10.252;2023-05-08T13:59:31;101965.88;;;25.16;30.24
16120;BME280;12670;53.502;10.252;2023-05-08T14:02:35;101976.47;;;24.76;33.05
16120;BME280;12670;53.502;10.252;2023-05-08T14:05:38;101969.06;;;24.22;30.83
16120;BME280;12670;53.502;10.252;2023-05-08T14:08:42;101976.84;;;24.38;30.05
16120;BME280;12670;53.502;10.252;2023-05-08T14:11:49;101960.16;;;23.98;29.66
16120;BME280;12670;53.502;10.252;2023-05-08T14:14:51;101953.16;;;24.29;30.39
16120;BME280;12670;53.502;10.252;2023-05-08T14:17:54;101953.28;;;24.16;30.02
16120;BME280;12670;53.502;10.252;2023-05-08T14:20:56;101945.03;;;23.60;31.21
16120;BME280;12670;53.502;10.252;2023-05-08T14:24:00;101937.66;;;23.27;29.90
16120;BME280;12670;53.502;10.252;2023-05-08T14:27:03;101935.34;;;23.33;30.47
16120;BME280;12670;53.502;10.252;2023-05-08T14:30:07;101930.72;;;23.11;30.25
16120;BME280;12670;53.502;10.252;2023-05-08T14:33:10;101937.25;;;22.72;31.08
16120;BME280;12670;53.502;10.252;2023-05-08T14:36:12;101947.41;;;22.32;31.89
16120;BME280;12670;53.502;10.252;2023-05-08T14:39:17;101926.53;;;22.21;31.28
16120;BME280;12670;53.502;10.252;2023-05-08T14:42:19;101925.69;;;22.21;31.87
16120;BME280;12670;53.502;10.252;2023-05-08T14:45:25;101924.16;;;22.04;31.60
16120;BME280;12670;53.502;10.252;2023-05-08T14:48:27;101929.56;;;21.91;32.87
16120;BME280;12670;53.502;10.252;2023-05-08T14:51:30;101914.34;;;21.65;31.98
16120;BME280;12670;53.502;10.252;2023-05-08T14:54:34;101906.84;;;21.30;31.41
16120;BME280;12670;53.502;10.252;2023-05-08T14:57:37;101898.63;;;21.32;32.11
16120;BME280;12670;53.502;10.252;2023-05-08T15:00:40;101910.34;;;21.18;32.78
16120;BME280;12670;53.502;10.252;2023-05-08T15:03:42;101904.28;;;21.14;33.60
16120;BME280;12670;53.502;10.252;2023-05-08T15:06:47;101909.66;;;21.01;32.52
16120;BME280;12670;53.502;10.252;2023-05-08T15:09:52;101905.41;;;20.97;33.03
16120;BME280;12670;53.502;10.252;2023-05-08T15:12:55;101918.16;;;20.95;33.99
16120;BME280;12670;53.502;10.252;2023-05-08T15:15:58;101907.09;;;20.86;32.65
16120;BME280;12670;53.502;10.252;2023-05-08T15:19:00;101892.56;;;20.88;32.64
16120;BME280;12670;53.502;10.252;2023-05-08T15:22:03;101890.63;;;20.90;33.27
16120;BME280;12670;53.502;10.252;2023-05-08T15:25:07;101876.28;;;20.90;32.58
16120;BME280;12670;53.502;10.252;2023-05-08T15:28:10;101879.56;;;20.81;33.58
16120;BME280;12670;53.502;10.252;2023-05-08T15:31:12;101874.84;;;20.84;33.46
16120;BME280;12670;53.502;10.252;2023-05-08T15:34:15;101867.44;;;20.88;33.09
16120;BME280;12670;53.502;10.252;2023-05-08T15:37:18;101871.31;;;20.96;34.10
16120;BME280;12670;53.502;10.252;2023-05-08T15:40:22;101865.47;;;20.90;33.38
16120;BME280;12670;53.502;10.252;2023-05-08T15:43:24;101881.00;;;20.86;32.99
16120;BME280;12670;53.502;10.252;2023-05-08T15:46:27;101890.22;;;20.69;32.13
16120;BME280;12670;53.502;10.252;2023-05-08T15:49:30;101880.34;;;20.56;34.12
16120;BME280;12670;53.502;10.252;2023-05-08T15:52:32;101884.75;;;20.57;32.57
16120;BME280;12670;53.502;10.252;2023-05-08T15:55:37;101875.56;;;20.32;32.74